sensor_id;sensor_type;location;lat;lon;timestamp;P1;durP1;ratioP1;P2;durP2;ratioP2
75554;SDS011;66087;53.126;17.960;2023-04-24T00:01:56;16.30;;;10.50;;
75554;SDS011;66087;53.126;17.960;2023-04-24T00:04:23;15.70;;;9.50;;
75554;SDS011;66087;53.126;17.960;2023-04-24T00:06:51;14.30;;;9.40;;
75554;SDS011;66087;53.126;17.960;2023-04-24T00:09:24;14.00;;;9.30;;
75554;SDS011;66087;53.126;17.960;2023-04-24T00:11:50;14.20;;;9.70;;
75554;SDS011;66087;53.126;17.960;2023-04-24T00:14:16;14.70;;;10.00;;
75554;SDS011;66087;53.126;17.960;2023-04-24T00:16:41;13.70;;;9.60;;
75554;SDS011;66087;53.126;17.960;2023-04-24T00:19:09;14.80;;;9.10;;
75554;SDS011;66087;53.126;17.960;2023-04-24T00:21:34;14.20;;;9.20;;
75554;SDS011;66087;53.126;17.960;2023-04-24T00:24:02;13.80;;;9.30;;
75554;SDS011;66087;53.126;17.960;2023-04-24T00:26:28;14.80;;;9.70;;
75554;SDS011;66087;53.126;17.960;2023-04-24T00:28:54;14.20;;;9.60;;
75554;SDS011;66087;53.126;17.960;2023-04-24T00:31:20;13.50;;;8.70;;
75554;SDS011;66087;53.126;17.960;2023-04-24T00:33:47;14.80;;;8.80;;
75554;SDS011;66087;53.126;17.960;2023-04-24T00:36:13;12.60;;;8.50;;
75554;SDS011;66087;53.126;17.960;2023-04-24T00:38:40;13.80;;;8.20;;
75554;SDS011;66087;53.126;17.960;2023-04-24T00:41:07;13.30;;;9.00;;
75554;SDS011;66087;53.126;17.960;2023-04-24T00:43:34;12.60;;;8.20;;
75554;SDS011;66087;53.126;17.960;2023-04-24T00:46:00;13.20;;;8.20;;
75554;SDS011;66087;53.126;17.960;2023-04-24T00:48:47;15.00;;;9.60;;
75554;SDS011;66087;53.126;17.960;2023-04-24T00:51:13;14.80;;;9.30;;
75554;SDS011;66087;53.126;17.960;2023-04-24T00:53:39;14.10;;;8.50;;
75554;SDS011;66087;53.126;17.960;2023-04-24T00:56:05;12.00;;;8.00;;
75554;SDS011;66087;53.126;17.960;2023-04-24T00:58:31;12.50;;;8.10;;
75554;SDS011;66087;53.126;17.960;2023-04-24T01:00:58;14.00;;;8.80;;
75554;SDS011;66087;53.126;17.960;2023-04-24T01:03:28;13.70;;;9.50;;
75554;SDS011;66087;53.126;17.960;2023-04-24T01:05:56;12.80;;;9.20;;
75554;SDS011;66087;53.126;17.960;2023-04-24T01:08:24;13.30;;;8.40;;
75554;SDS011;66087;53.126;17.960;2023-04-24T01:10:53;13.70;;;8.50;;
75554;SDS011;66087;53.126;17.960;2023-04-24T01:13:22;12.50;;;8.70;;
75554;SDS011;66087;53.126;17.960;2023-04-24T01:16:09;14.30;;;9.30;;
75554;SDS011;66087;53.126;17.960;2023-04-24T01:18:35;14.40;;;9.30;;
75554;SDS011;66087;53.126;17.960;2023-04-24T01:21:07;14.10;;;9.40;;
75554;SDS011;66087;53.126;17.960;2023-04-24T01:23:34;17.10;;;9.60;;
75554;SDS011;66087;53.126;17.960;2023-04-24T01:26:00;16.50;;;11.10;;
75554;SDS011;66087;53.126;17.960;2023-04-24T01:28:29;17.10;;;11.20;;
75554;SDS011;66087;53.126;17.960;2023-04-24T01:30:57;15.60;;;10.80;;
75554;SDS011;66087;53.126;17.960;2023-04-24T01:33:24;15.30;;;9.80;;
75554;SDS011;66087;53.126;17.960;2023-04-24T01:35:50;14.30;;;9.60;;
75554;SDS011;66087;53.126;17.960;2023-04-24T01:38:16;14.90;;;9.60;;
75554;SDS011;66087;53.126;17.960;2023-04-24T01:40:42;15.70;;;9.70;;
75554;SDS011;66087;53.126;17.960;2023-04-24T01:43:09;17.20;;;9.60;;
75554;SDS011;66087;53.126;17.960;2023-04-24T01:45:35;14.90;;;9.80;;
75554;SDS011;66087;53.126;17.960;2023-04-24T01:48:03;15.50;;;10.40;;
75554;SDS011;66087;53.126;17.960;2023-04-24T01:50:30;16.10;;;10.60;;
75554;SDS011;66087;53.126;17.960;2023-04-24T01:52:57;15.90;;;11.10;;
75554;SDS011;66087;53.126;17.960;2023-04-24T01:55:23;19.90;;;12.20;;
75554;SDS011;66087;53.126;17.960;2023-04-24T01:57:52;17.70;;;10.90;;
75554;SDS011;66087;53.126;17.960;2023-04-24T02:00:21;15.60;;;10.70;;
75554;SDS011;66087;53.126;17.960;2023-04-24T02:02:48;16.80;;;10.50;;
75554;SDS011;66087;53.126;17.960;2023-04-24T02:05:14;16.20;;;11.00;;
75554;SDS011;66087;53.126;17.960;2023-04-24T02:07:41;15.80;;;10.50;;
75554;SDS011;66087;53.126;17.960;2023-04-24T02:10:08;17.30;;;11.30;;
75554;SDS011;66087;53.126;17.960;2023-04-24T02:12:36;18.60;;;10.80;;
75554;SDS011;66087;53.126;17.960;2023-04-24T02:15:02;16.00;;;10.90;;
75554;SDS011;66087;53.126;17.960;2023-04-24T02:17:30;19.10;;;12.40;;
75554;SDS011;66087;53.126;17.960;2023-04-24T02:19:57;17.80;;;12.40;;
75554;SDS011;66087;53.126;17.960;2023-04-24T02:22:22;19.70;;;11.50;;
75554;SDS011;66087;53.126;17.960;2023-04-24T02:24:48;15.70;;;10.10;;
75554;SDS011;66087;53.126;17.960;2023-04-24T02:27:15;19.00;;;11.80;;
75554;SDS011;66087;53.126;17.960;2023-04-24T02:29:41;17.30;;;11.40;;
75554;SDS011;66087;53.126;17.960;2023-04-24T02:32:07;19.20;;;12.10;;
75554;SDS011;66087;53.126;17.960;2023-04-24T02:34:37;16.00;;;10.00;;
75554;SDS011;66087;53.126;17.960;2023-04-24T02:37:03;16.70;;;11.00;;
75554;SDS011;66087;53.126;17.960;2023-04-24T02:39:29;18.10;;;11.30;;
75554;SDS011;66087;53.126;17.960;2023-04-24T02:41:55;19.20;;;11.70;;
75554;SDS011;66087;53.126;17.960;2023-04-24T02:44:22;18.40;;;12.00;;
75554;SDS011;66087;53.126;17.960;2023-04-24T02:46:49;16.30;;;10.40;;
75554;SDS011;66087;53.126;17.960;2023-04-24T02:49:16;15.50;;;10.00;;
75554;SDS011;66087;53.126;17.960;2023-04-24T02:51:41;16.10;;;10.50;;
75554;SDS011;66087;53.126;17.960;2023-04-24T02:54:08;19.20;;;11.70;;
75554;SDS011;66087;53.126;17.960;2023-04-24T02:56:35;18.60;;;10.70;;
75554;SDS011;66087;53.126;17.960;2023-04-24T02:59:03;18.40;;;10.10;;
75554;SDS011;66087;53.126;17.960;2023-04-24T03:01:29;18.30;;;11.50;;
75554;SDS011;66087;53.126;17.960;2023-04-24T03:03:55;17.60;;;11.00;;
75554;SDS011;66087;53.126;17.960;2023-04-24T03:06:21;16.60;;;11.10;;
75554;SDS011;66087;53.126;17.960;2023-04-24T03:08:48;18.70;;;11.60;;
75554;SDS011;66087;53.126;17.960;2023-04-24T03:11:15;16.40;;;10.60;;
75554;SDS011;66087;53.126;17.960;2023-04-24T03:13:41;16.60;;;9.90;;
75554;SDS011;66087;53.126;17.960;2023-04-24T03:16:08;16.90;;;11.00;;
75554;SDS011;66087;53.126;17.960;2023-04-24T03:18:54;13.90;;;9.10;;
75554;SDS011;66087;53.126;17.960;2023-04-24T03:21:23;16.50;;;11.00;;
75554;SDS011;66087;53.126;17.960;2023-04-24T03:23:49;16.00;;;10.00;;
75554;SDS011;66087;53.126;17.960;2023-04-24T03:26:16;17.70;;;12.70;;
75554;SDS011;66087;53.126;17.960;2023-04-24T03:28:51;16.40;;;10.70;;
75554;SDS011;66087;53.126;17.960;2023-04-24T03:31:19;16.80;;;10.80;;
75554;SDS011;66087;53.126;17.960;2023-04-24T03:33:47;17.70;;;11.20;;
75554;SDS011;66087;53.126;17.960;2023-04-24T03:36:13;16.00;;;10.70;;
75554;SDS011;66087;53.126;17.960;2023-04-24T03:38:40;16.10;;;10.10;;
75554;SDS011;66087;53.126;17.960;2023-04-24T03:41:19;17.50;;;9.70;;
75554;SDS011;66087;53.126;17.960;2023-04-24T03:43:49;13.90;;;7.60;;
75554;SDS011;66087;53.126;17.960;2023-04-24T03:46:15;13.30;;;8.50;;
75554;SDS011;66087;53.126;17.960;2023-04-24T03:48:46;18.40;;;10.50;;
75554;SDS011;66087;53.126;17.960;2023-04-24T03:51:13;17.80;;;10.10;;
75554;SDS011;66087;53.126;17.960;2023-04-24T03:53:41;16.90;;;10.20;;
75554;SDS011;66087;53.126;17.960;2023-04-24T03:56:08;17.10;;;10.30;;
75554;SDS011;66087;53.126;17.960;2023-04-24T03:58:35;19.40;;;11.50;;
75554;SDS011;66087;53.126;17.960;2023-04-24T04:01:00;15.90;;;10.40;;
75554;SDS011;66087;53.126;17.960;2023-04-24T04:03:38;14.80;;;9.90;;
75554;SDS011;66087;53.126;17.960;2023-04-24T04:06:04;20.10;;;11.40;;
75554;SDS011;66087;53.126;17.960;2023-04-24T04:08:30;17.30;;;10.80;;
75554;SDS011;66087;53.126;17.960;2023-04-24T04:10:57;16.00;;;10.30;;
75554;SDS011;66087;53.126;17.960;2023-04-24T04:13:23;14.60;;;9.60;;
75554;SDS011;66087;53.126;17.960;2023-04-24T04:15:49;16.20;;;10.70;;
75554;SDS011;66087;53.126;17.960;2023-04-24T04:18:16;16.00;;;9.90;;
75554;SDS011;66087;53.126;17.960;2023-04-24T04:20:42;15.00;;;9.50;;
75554;SDS011;66087;53.126;17.960;2023-04-24T04:23:28;20.40;;;11.70;;
75554;SDS011;66087;53.126;17.960;2023-04-24T04:26:06;66.40;;;31.70;;
75554;SDS011;66087;53.126;17.960;2023-04-24T04:28:43;32.50;;;17.00;;
75554;SDS011;66087;53.126;17.960;2023-04-24T04:31:11;22.90;;;13.10;;
75554;SDS011;66087;53.126;17.960;2023-04-24T04:33:37;23.60;;;13.10;;
75554;SDS011;66087;53.126;17.960;2023-04-24T04:36:05;18.70;;;10.90;;
75554;SDS011;66087;53.126;17.960;2023-04-24T04:38:33;18.90;;;11.70;;
75554;SDS011;66087;53.126;17.960;2023-04-24T04:41:15;18.00;;;11.00;;
75554;SDS011;66087;53.126;17.960;2023-04-24T04:43:45;19.00;;;11.40;;
75554;SDS011;66087;53.126;17.960;2023-04-24T04:46:12;17.00;;;11.10;;
75554;SDS011;66087;53.126;17.960;2023-04-24T04:48:56;17.00;;;10.70;;
75554;SDS011;66087;53.126;17.960;2023-04-24T04:51:42;18.10;;;11.40;;
75554;SDS011;66087;53.126;17.960;2023-04-24T04:54:08;15.00;;;10.40;;
75554;SDS011;66087;53.126;17.960;2023-04-24T04:56:35;15.90;;;9.90;;
75554;SDS011;66087;53.126;17.960;2023-04-24T04:59:01;19.00;;;11.40;;
75554;SDS011;66087;53.126;17.960;2023-04-24T05:01:27;18.80;;;12.90;;
75554;SDS011;66087;53.126;17.960;2023-04-24T05:03:54;17.20;;;11.00;;
75554;SDS011;66087;53.126;17.960;2023-04-24T05:06:20;17.40;;;11.20;;
75554;SDS011;66087;53.126;17.960;2023-04-24T05:08:46;18.60;;;11.70;;
75554;SDS011;66087;53.126;17.960;2023-04-24T05:11:23;17.40;;;11.70;;
75554;SDS011;66087;53.126;17.960;2023-04-24T05:13:50;19.10;;;12.10;;
75554;SDS011;66087;53.126;17.960;2023-04-24T05:16:23;16.20;;;10.80;;
75554;SDS011;66087;53.126;17.960;2023-04-24T05:18:51;15.00;;;10.30;;
75554;SDS011;66087;53.126;17.960;2023-04-24T05:21:19;15.00;;;10.30;;
75554;SDS011;66087;53.126;17.960;2023-04-24T05:23:48;15.00;;;9.60;;
75554;SDS011;66087;53.126;17.960;2023-04-24T05:26:20;13.70;;;9.50;;
75554;SDS011;66087;53.126;17.960;2023-04-24T05:28:46;13.80;;;9.00;;
75554;SDS011;66087;53.126;17.960;2023-04-24T05:31:12;15.70;;;11.00;;
75554;SDS011;66087;53.126;17.960;2023-04-24T05:33:38;15.10;;;10.20;;
75554;SDS011;66087;53.126;17.960;2023-04-24T05:36:06;17.00;;;11.60;;
75554;SDS011;66087;53.126;17.960;2023-04-24T05:38:32;17.00;;;10.70;;
75554;SDS011;66087;53.126;17.960;2023-04-24T05:41:03;14.70;;;9.80;;
75554;SDS011;66087;53.126;17.960;2023-04-24T05:43:30;17.20;;;10.30;;
75554;SDS011;66087;53.126;17.960;2023-04-24T05:45:56;15.20;;;10.30;;
75554;SDS011;66087;53.126;17.960;2023-04-24T05:48:22;14.80;;;10.30;;
75554;SDS011;66087;53.126;17.960;2023-04-24T05:50:50;16.40;;;9.90;;
75554;SDS011;66087;53.126;17.960;2023-04-24T05:53:16;14.50;;;9.50;;
75554;SDS011;66087;53.126;17.960;2023-04-24T05:55:42;16.80;;;10.20;;
75554;SDS011;66087;53.126;17.960;2023-04-24T05:58:08;14.50;;;9.70;;
75554;SDS011;66087;53.126;17.960;2023-04-24T06:00:46;14.60;;;9.20;;
75554;SDS011;66087;53.126;17.960;2023-04-24T06:03:17;13.60;;;9.30;;
75554;SDS011;66087;53.126;17.960;2023-04-24T06:05:43;16.10;;;10.10;;
75554;SDS011;66087;53.126;17.960;2023-04-24T06:08:09;15.20;;;9.40;;
75554;SDS011;66087;53.126;17.960;2023-04-24T06:10:38;16.30;;;9.90;;
75554;SDS011;66087;53.126;17.960;2023-04-24T06:13:05;16.20;;;10.40;;
75554;SDS011;66087;53.126;17.960;2023-04-24T06:15:37;14.00;;;10.20;;
75554;SDS011;66087;53.126;17.960;2023-04-24T06:18:06;14.90;;;9.90;;
75554;SDS011;66087;53.126;17.960;2023-04-24T06:20:33;14.50;;;9.90;;
75554;SDS011;66087;53.126;17.960;2023-04-24T06:23:01;16.40;;;10.10;;
75554;SDS011;66087;53.126;17.960;2023-04-24T06:25:28;15.50;;;10.40;;
75554;SDS011;66087;53.126;17.960;2023-04-24T06:28:14;15.40;;;9.80;;
75554;SDS011;66087;53.126;17.960;2023-04-24T06:30:45;14.40;;;10.10;;
75554;SDS011;66087;53.126;17.960;2023-04-24T06:33:11;15.40;;;10.90;;
75554;SDS011;66087;53.126;17.960;2023-04-24T06:35:37;14.70;;;9.40;;
75554;SDS011;66087;53.126;17.960;2023-04-24T06:38:23;15.30;;;9.80;;
75554;SDS011;66087;53.126;17.960;2023-04-24T06:40:49;14.30;;;8.90;;
75554;SDS011;66087;53.126;17.960;2023-04-24T06:43:17;13.60;;;8.70;;
75554;SDS011;66087;53.126;17.960;2023-04-24T06:45:44;13.20;;;9.00;;
75554;SDS011;66087;53.126;17.960;2023-04-24T06:48:11;13.80;;;8.50;;
75554;SDS011;66087;53.126;17.960;2023-04-24T06:50:37;15.80;;;9.20;;
75554;SDS011;66087;53.126;17.960;2023-04-24T06:53:03;15.90;;;10.80;;
75554;SDS011;66087;53.126;17.960;2023-04-24T06:55:29;15.00;;;9.50;;
75554;SDS011;66087;53.126;17.960;2023-04-24T06:57:55;13.30;;;8.80;;
75554;SDS011;66087;53.126;17.960;2023-04-24T07:00:21;14.00;;;9.30;;
75554;SDS011;66087;53.126;17.960;2023-04-24T07:02:49;12.30;;;8.70;;
75554;SDS011;66087;53.126;17.960;2023-04-24T07:05:15;12.40;;;8.40;;
75554;SDS011;66087;53.126;17.960;2023-04-24T07:07:41;13.30;;;8.60;;
75554;SDS011;66087;53.126;17.960;2023-04-24T07:10:09;13.00;;;7.90;;
75554;SDS011;66087;53.126;17.960;2023-04-24T07:12:35;11.90;;;8.00;;
75554;SDS011;66087;53.126;17.960;2023-04-24T07:15:01;13.20;;;7.90;;
75554;SDS011;66087;53.126;17.960;2023-04-24T07:17:27;12.10;;;6.80;;
75554;SDS011;66087;53.126;17.960;2023-04-24T07:19:56;10.50;;;6.90;;
75554;SDS011;66087;53.126;17.960;2023-04-24T07:22:28;12.60;;;7.50;;
75554;SDS011;66087;53.126;17.960;2023-04-24T07:25:07;11.70;;;7.30;;
75554;SDS011;66087;53.126;17.960;2023-04-24T07:27:40;10.90;;;6.10;;
75554;SDS011;66087;53.126;17.960;2023-04-24T07:30:06;12.80;;;7.30;;
75554;SDS011;66087;53.126;17.960;2023-04-24T07:32:34;10.60;;;6.10;;
75554;SDS011;66087;53.126;17.960;2023-04-24T07:35:01;11.60;;;6.20;;
75554;SDS011;66087;53.126;17.960;2023-04-24T07:37:28;10.10;;;6.30;;
75554;SDS011;66087;53.126;17.960;2023-04-24T07:39:54;9.90;;;6.60;;
75554;SDS011;66087;53.126;17.960;2023-04-24T07:42:22;11.90;;;7.00;;
75554;SDS011;66087;53.126;17.960;2023-04-24T07:44:48;10.90;;;6.10;;
75554;SDS011;66087;53.126;17.960;2023-04-24T07:47:18;10.30;;;6.00;;
75554;SDS011;66087;53.126;17.960;2023-04-24T07:49:44;10.60;;;6.30;;
75554;SDS011;66087;53.126;17.960;2023-04-24T07:52:11;12.60;;;6.20;;
75554;SDS011;66087;53.126;17.960;2023-04-24T07:54:36;10.80;;;6.20;;
75554;SDS011;66087;53.126;17.960;2023-04-24T07:57:04;10.20;;;6.10;;
75554;SDS011;66087;53.126;17.960;2023-04-24T07:59:35;12.00;;;5.70;;
75554;SDS011;66087;53.126;17.960;2023-04-24T08:02:08;10.80;;;6.40;;
75554;SDS011;66087;53.126;17.960;2023-04-24T08:04:35;13.00;;;7.40;;
75554;SDS011;66087;53.126;17.960;2023-04-24T08:07:01;11.10;;;6.90;;
75554;SDS011;66087;53.126;17.960;2023-04-24T08:09:28;11.30;;;6.60;;
75554;SDS011;66087;53.126;17.960;2023-04-24T08:11:56;11.30;;;5.80;;
75554;SDS011;66087;53.126;17.960;2023-04-24T08:14:22;9.90;;;6.40;;
75554;SDS011;66087;53.126;17.960;2023-04-24T08:16:53;12.40;;;7.30;;
75554;SDS011;66087;53.126;17.960;2023-04-24T08:19:25;11.50;;;5.80;;
75554;SDS011;66087;53.126;17.960;2023-04-24T08:21:51;12.40;;;7.00;;
75554;SDS011;66087;53.126;17.960;2023-04-24T08:24:17;10.60;;;6.40;;
75554;SDS011;66087;53.126;17.960;2023-04-24T08:26:43;8.50;;;5.70;;
75554;SDS011;66087;53.126;17.960;2023-04-24T08:29:09;9.00;;;5.30;;
75554;SDS011;66087;53.126;17.960;2023-04-24T08:31:35;8.80;;;5.60;;
75554;SDS011;66087;53.126;17.960;2023-04-24T08:34:19;11.30;;;7.50;;
75554;SDS011;66087;53.126;17.960;2023-04-24T08:37:23;11.00;;;7.00;;
75554;SDS011;66087;53.126;17.960;2023-04-24T08:39:59;10.40;;;6.40;;
75554;SDS011;66087;53.126;17.960;2023-04-24T08:42:29;8.20;;;5.10;;
75554;SDS011;66087;53.126;17.960;2023-04-24T08:44:58;9.40;;;5.10;;
75554;SDS011;66087;53.126;17.960;2023-04-24T08:47:24;9.70;;;5.20;;
75554;SDS011;66087;53.126;17.960;2023-04-24T08:49:54;7.80;;;4.60;;
75554;SDS011;66087;53.126;17.960;2023-04-24T08:52:21;7.40;;;5.00;;
75554;SDS011;66087;53.126;17.960;2023-04-24T08:54:49;9.40;;;5.40;;
75554;SDS011;66087;53.126;17.960;2023-04-24T08:57:16;9.50;;;5.50;;
75554;SDS011;66087;53.126;17.960;2023-04-24T08:59:47;8.80;;;5.40;;
75554;SDS011;66087;53.126;17.960;2023-04-24T09:02:18;7.70;;;4.90;;
75554;SDS011;66087;53.126;17.960;2023-04-24T09:04:45;9.00;;;5.30;;
75554;SDS011;66087;53.126;17.960;2023-04-24T09:07:12;8.50;;;5.30;;
75554;SDS011;66087;53.126;17.960;2023-04-24T09:09:55;7.80;;;5.40;;
75554;SDS011;66087;53.126;17.960;2023-04-24T09:12:30;7.30;;;5.00;;
75554;SDS011;66087;53.126;17.960;2023-04-24T09:15:03;8.20;;;4.50;;
75554;SDS011;66087;53.126;17.960;2023-04-24T09:17:30;9.10;;;5.00;;
75554;SDS011;66087;53.126;17.960;2023-04-24T09:19:59;9.10;;;4.70;;
75554;SDS011;66087;53.126;17.960;2023-04-24T09:22:36;8.50;;;5.60;;
75554;SDS011;66087;53.126;17.960;2023-04-24T09:25:04;9.20;;;5.70;;
75554;SDS011;66087;53.126;17.960;2023-04-24T09:27:41;9.10;;;5.80;;
75554;SDS011;66087;53.126;17.960;2023-04-24T09:30:09;10.00;;;5.40;;
75554;SDS011;66087;53.126;17.960;2023-04-24T09:32:45;9.00;;;5.80;;
75554;SDS011;66087;53.126;17.960;2023-04-24T09:35:13;9.40;;;5.60;;
75554;SDS011;66087;53.126;17.960;2023-04-24T09:37:41;9.70;;;5.60;;
75554;SDS011;66087;53.126;17.960;2023-04-24T09:40:11;11.70;;;5.30;;
75554;SDS011;66087;53.126;17.960;2023-04-24T09:42:43;9.50;;;5.50;;
75554;SDS011;66087;53.126;17.960;2023-04-24T09:45:17;8.40;;;5.60;;
75554;SDS011;66087;53.126;17.960;2023-04-24T09:47:44;8.30;;;5.20;;
75554;SDS011;66087;53.126;17.960;2023-04-24T09:50:14;7.60;;;4.70;;
75554;SDS011;66087;53.126;17.960;2023-04-24T09:52:42;8.60;;;5.20;;
75554;SDS011;66087;53.126;17.960;2023-04-24T09:55:11;8.90;;;4.70;;
75554;SDS011;66087;53.126;17.960;2023-04-24T09:57:51;9.10;;;5.40;;
75554;SDS011;66087;53.126;17.960;2023-04-24T10:00:23;9.30;;;4.90;;
75554;SDS011;66087;53.126;17.960;2023-04-24T10:03:00;7.90;;;5.10;;
75554;SDS011;66087;53.126;17.960;2023-04-24T10:05:30;7.60;;;5.30;;
75554;SDS011;66087;53.126;17.960;2023-04-24T10:08:06;7.70;;;4.70;;
75554;SDS011;66087;53.126;17.960;2023-04-24T10:10:37;8.40;;;5.70;;
75554;SDS011;66087;53.126;17.960;2023-04-24T10:13:05;8.30;;;5.20;;
75554;SDS011;66087;53.126;17.960;2023-04-24T10:15:36;8.30;;;5.60;;
75554;SDS011;66087;53.126;17.960;2023-04-24T10:18:04;10.00;;;5.80;;
75554;SDS011;66087;53.126;17.960;2023-04-24T10:20:33;8.60;;;5.60;;
75554;SDS011;66087;53.126;17.960;2023-04-24T10:23:00;9.40;;;5.90;;
75554;SDS011;66087;53.126;17.960;2023-04-24T10:25:28;8.30;;;5.90;;
75554;SDS011;66087;53.126;17.960;2023-04-24T10:27:56;10.60;;;6.10;;
75554;SDS011;66087;53.126;17.960;2023-04-24T10:30:26;9.60;;;5.80;;
75554;SDS011;66087;53.126;17.960;2023-04-24T10:32:58;10.60;;;5.90;;
75554;SDS011;66087;53.126;17.960;2023-04-24T10:35:25;8.20;;;5.50;;
75554;SDS011;66087;53.126;17.960;2023-04-24T10:38:01;7.60;;;5.40;;
75554;SDS011;66087;53.126;17.960;2023-04-24T10:40:33;10.30;;;6.00;;
75554;SDS011;66087;53.126;17.960;2023-04-24T10:43:04;8.70;;;4.80;;
75554;SDS011;66087;53.126;17.960;2023-04-24T10:45:33;9.50;;;5.30;;
75554;SDS011;66087;53.126;17.960;2023-04-24T10:48:07;9.80;;;5.10;;
75554;SDS011;66087;53.126;17.960;2023-04-24T10:50:43;8.50;;;5.70;;
75554;SDS011;66087;53.126;17.960;2023-04-24T10:53:18;7.50;;;5.50;;
75554;SDS011;66087;53.126;17.960;2023-04-24T10:55:50;8.10;;;4.80;;
75554;SDS011;66087;53.126;17.960;2023-04-24T10:58:35;8.00;;;5.30;;
75554;SDS011;66087;53.126;17.960;2023-04-24T11:01:07;8.30;;;5.50;;
75554;SDS011;66087;53.126;17.960;2023-04-24T11:03:34;8.20;;;5.00;;
75554;SDS011;66087;53.126;17.960;2023-04-24T11:06:02;7.80;;;5.50;;
75554;SDS011;66087;53.126;17.960;2023-04-24T11:08:37;7.60;;;5.40;;
75554;SDS011;66087;53.126;17.960;2023-04-24T11:11:09;7.40;;;4.90;;
75554;SDS011;66087;53.126;17.960;2023-04-24T11:19:18;9.90;;;5.90;;
75554;SDS011;66087;53.126;17.960;2023-04-24T11:24:48;8.50;;;5.90;;
75554;SDS011;66087;53.126;17.960;2023-04-24T11:27:20;8.70;;;6.20;;
75554;SDS011;66087;53.126;17.960;2023-04-24T11:29:51;11.00;;;6.90;;
75554;SDS011;66087;53.126;17.960;2023-04-24T11:32:28;7.60;;;5.40;;
75554;SDS011;66087;53.126;17.960;2023-04-24T11:35:00;7.70;;;5.10;;
75554;SDS011;66087;53.126;17.960;2023-04-24T11:37:35;9.00;;;5.60;;
75554;SDS011;66087;53.126;17.960;2023-04-24T11:40:03;10.00;;;6.50;;
75554;SDS011;66087;53.126;17.960;2023-04-24T11:45:10;8.10;;;5.30;;
75554;SDS011;66087;53.126;17.960;2023-04-24T11:47:38;8.30;;;5.10;;
75554;SDS011;66087;53.126;17.960;2023-04-24T11:50:45;7.90;;;5.00;;
75554;SDS011;66087;53.126;17.960;2023-04-24T11:53:30;8.30;;;5.70;;
75554;SDS011;66087;53.126;17.960;2023-04-24T11:56:02;8.10;;;5.20;;
75554;SDS011;66087;53.126;17.960;2023-04-24T11:58:34;8.50;;;5.80;;
75554;SDS011;66087;53.126;17.960;2023-04-24T12:01:01;7.70;;;5.30;;
75554;SDS011;66087;53.126;17.960;2023-04-24T12:03:27;7.60;;;5.40;;
75554;SDS011;66087;53.126;17.960;2023-04-24T12:06:04;9.00;;;5.70;;
75554;SDS011;66087;53.126;17.960;2023-04-24T12:08:33;10.20;;;6.30;;
75554;SDS011;66087;53.126;17.960;2023-04-24T12:11:01;8.00;;;5.40;;
75554;SDS011;66087;53.126;17.960;2023-04-24T12:13:28;8.00;;;5.10;;
75554;SDS011;66087;53.126;17.960;2023-04-24T12:15:54;8.30;;;3.90;;
75554;SDS011;66087;53.126;17.960;2023-04-24T12:18:22;7.60;;;4.70;;
75554;SDS011;66087;53.126;17.960;2023-04-24T12:20:50;7.00;;;4.80;;
75554;SDS011;66087;53.126;17.960;2023-04-24T12:23:16;7.90;;;5.60;;
75554;SDS011;66087;53.126;17.960;2023-04-24T12:25:59;11.90;;;5.60;;
75554;SDS011;66087;53.126;17.960;2023-04-24T12:28:34;8.90;;;5.40;;
75554;SDS011;66087;53.126;17.960;2023-04-24T12:31:01;6.30;;;4.60;;
75554;SDS011;66087;53.126;17.960;2023-04-24T12:33:32;7.70;;;5.20;;
75554;SDS011;66087;53.126;17.960;2023-04-24T12:36:00;7.10;;;5.00;;
75554;SDS011;66087;53.126;17.960;2023-04-24T12:38:27;8.80;;;5.50;;
75554;SDS011;66087;53.126;17.960;2023-04-24T12:41:03;8.90;;;6.10;;
75554;SDS011;66087;53.126;17.960;2023-04-24T12:43:32;9.70;;;6.50;;
75554;SDS011;66087;53.126;17.960;2023-04-24T12:45:59;10.00;;;7.10;;
75554;SDS011;66087;53.126;17.960;2023-04-24T12:48:26;10.50;;;7.60;;
75554;SDS011;66087;53.126;17.960;2023-04-24T12:50:54;9.50;;;6.40;;
75554;SDS011;66087;53.126;17.960;2023-04-24T12:53:26;10.80;;;7.20;;
75554;SDS011;66087;53.126;17.960;2023-04-24T12:55:54;9.80;;;6.60;;
75554;SDS011;66087;53.126;17.960;2023-04-24T12:58:20;10.30;;;7.40;;
75554;SDS011;66087;53.126;17.960;2023-04-24T13:00:46;10.10;;;6.30;;
75554;SDS011;66087;53.126;17.960;2023-04-24T13:03:33;7.60;;;5.00;;
75554;SDS011;66087;53.126;17.960;2023-04-24T13:05:59;10.70;;;6.40;;
75554;SDS011;66087;53.126;17.960;2023-04-24T13:08:25;10.80;;;6.20;;
75554;SDS011;66087;53.126;17.960;2023-04-24T13:10:53;7.40;;;5.40;;
75554;SDS011;66087;53.126;17.960;2023-04-24T13:13:20;7.40;;;5.10;;
75554;SDS011;66087;53.126;17.960;2023-04-24T13:15:46;9.30;;;6.50;;
75554;SDS011;66087;53.126;17.960;2023-04-24T13:18:33;9.10;;;6.50;;
75554;SDS011;66087;53.126;17.960;2023-04-24T13:21:01;6.50;;;4.40;;
75554;SDS011;66087;53.126;17.960;2023-04-24T13:23:28;9.00;;;6.40;;
75554;SDS011;66087;53.126;17.960;2023-04-24T13:25:54;8.20;;;5.40;;
75554;SDS011;66087;53.126;17.960;2023-04-24T13:28:24;8.50;;;5.10;;
75554;SDS011;66087;53.126;17.960;2023-04-24T13:30:51;8.90;;;6.00;;
75554;SDS011;66087;53.126;17.960;2023-04-24T13:33:17;6.40;;;5.00;;
75554;SDS011;66087;53.126;17.960;2023-04-24T13:36:03;7.60;;;6.00;;
75554;SDS011;66087;53.126;17.960;2023-04-24T13:38:29;8.80;;;5.40;;
75554;SDS011;66087;53.126;17.960;2023-04-24T13:40:55;7.50;;;4.30;;
75554;SDS011;66087;53.126;17.960;2023-04-24T13:43:21;8.50;;;5.20;;
75554;SDS011;66087;53.126;17.960;2023-04-24T13:45:48;6.20;;;3.80;;
75554;SDS011;66087;53.126;17.960;2023-04-24T13:48:15;8.40;;;5.60;;
75554;SDS011;66087;53.126;17.960;2023-04-24T13:50:42;6.60;;;4.70;;
75554;SDS011;66087;53.126;17.960;2023-04-24T13:53:08;6.20;;;4.40;;
75554;SDS011;66087;53.126;17.960;2023-04-24T13:55:34;7.00;;;4.50;;
75554;SDS011;66087;53.126;17.960;2023-04-24T13:58:00;7.10;;;4.80;;
75554;SDS011;66087;53.126;17.960;2023-04-24T14:00:27;7.20;;;5.20;;
75554;SDS011;66087;53.126;17.960;2023-04-24T14:02:53;7.70;;;5.60;;
75554;SDS011;66087;53.126;17.960;2023-04-24T14:05:21;7.50;;;4.80;;
75554;SDS011;66087;53.126;17.960;2023-04-24T14:07:47;6.80;;;5.20;;
75554;SDS011;66087;53.126;17.960;2023-04-24T14:10:13;8.10;;;5.60;;
75554;SDS011;66087;53.126;17.960;2023-04-24T14:12:39;8.20;;;5.50;;
75554;SDS011;66087;53.126;17.960;2023-04-24T14:15:06;10.50;;;5.80;;
75554;SDS011;66087;53.126;17.960;2023-04-24T14:17:32;8.30;;;5.70;;
75554;SDS011;66087;53.126;17.960;2023-04-24T14:19:58;7.80;;;4.40;;
75554;SDS011;66087;53.126;17.960;2023-04-24T14:22:26;7.60;;;5.00;;
75554;SDS011;66087;53.126;17.960;2023-04-24T14:24:52;7.10;;;5.00;;
75554;SDS011;66087;53.126;17.960;2023-04-24T14:27:17;8.70;;;5.10;;
75554;SDS011;66087;53.126;17.960;2023-04-24T14:29:45;8.50;;;4.60;;
75554;SDS011;66087;53.126;17.960;2023-04-24T14:32:11;7.10;;;4.30;;
75554;SDS011;66087;53.126;17.960;2023-04-24T14:34:40;5.70;;;3.20;;
75554;SDS011;66087;53.126;17.960;2023-04-24T14:37:07;5.10;;;2.90;;
75554;SDS011;66087;53.126;17.960;2023-04-24T14:39:52;6.60;;;4.00;;
75554;SDS011;66087;53.126;17.960;2023-04-24T14:42:19;7.20;;;4.40;;
75554;SDS011;66087;53.126;17.960;2023-04-24T14:44:47;8.40;;;4.50;;
75554;SDS011;66087;53.126;17.960;2023-04-24T14:47:34;7.60;;;3.80;;